sensor_id;sensor_type;location;lat;lon;timestamp;pressure;altitude;pressure_sealevel;temperature;humidity
23446;BME280;11895;48.738;9.320;2022-07-06T00:00:11;99252.69;;;21.09;45.92
23446;BME280;11895;48.738;9.320;2022-07-06T00:02:40;99272.47;;;21.24;45.74
23446;BME280;11895;48.738;9.320;2022-07-06T00:05:07;99264.00;;;21.16;44.74
23446;BME280;11895;48.738;9.320;2022-07-06T00:07:36;99266.22;;;21.22;45.24
23446;BME280;11895;48.738;9.320;2022-07-06T00:10:04;99258.03;;;21.11;46.38
23446;BME280;11895;48.738;9.320;2022-07-06T00:12:33;99267.13;;;21.11;46.05
23446;BME280;11895;48.738;9.320;2022-07-06T00:15:05;99268.25;;;21.20;45.29
23446;BME280;11895;48.738;9.320;2022-07-06T00:17:33;99269.34;;;21.17;45.58
23446;BME280;11895;48.738;9.320;2022-07-06T00:20:01;99266.50;;;21.08;45.79
23446;BME280;11895;48.738;9.320;2022-07-06T00:25:22;99260.16;;;21.07;46.64
23446;BME280;11895;48.738;9.320;2022-07-06T00:27:50;99268.38;;;21.07;46.18
23446;BME280;11895;48.738;9.320;2022-07-06T00:30:17;99270.88;;;21.10;43.37
23446;BME280;11895;48.738;9.320;2022-07-06T00:32:45;99270.38;;;20.83;47.98
23446;BME280;11895;48.738;9.320;2022-07-06T00:35:12;99264.66;;;20.97;46.30
23446;BME280;11895;48.738;9.320;2022-07-06T00:37:40;99275.38;;;20.89;46.98
23446;BME280;11895;48.738;9.320;2022-07-06T00:40:07;99268.91;;;20.90;47.67
23446;BME280;11895;48.738;9.320;2022-07-06T00:42:43;99268.53;;;20.83;47.32
23446;BME280;11895;48.738;9.320;2022-07-06T00:45:14;99276.38;;;20.76;45.24
23446;BME280;11895;48.738;9.320;2022-07-06T00:47:43;99274.38;;;20.67;48.18
23446;BME280;11895;48.738;9.320;2022-07-06T00:50:12;99276.38;;;20.65;47.90
23446;BME280;11895;48.738;9.320;2022-07-06T00:52:43;99280.84;;;20.55;48.93
23446;BME280;11895;48.738;9.320;2022-07-06T00:55:13;99273.97;;;20.49;49.09
23446;BME280;11895;48.738;9.320;2022-07-06T00:57:42;99277.19;;;20.32;50.62
23446;BME280;11895;48.738;9.320;2022-07-06T01:00:10;99272.53;;;20.10;51.65
23446;BME280;11895;48.738;9.320;2022-07-06T01:02:40;99278.41;;;20.17;49.19
23446;BME280;11895;48.738;9.320;2022-07-06T01:05:09;99273.59;;;19.96;54.81
23446;BME280;11895;48.738;9.320;2022-07-06T01:07:39;99278.91;;;19.87;53.59
23446;BME280;11895;48.738;9.320;2022-07-06T01:10:09;99275.78;;;19.80;53.10
23446;BME280;11895;48.738;9.320;2022-07-06T01:12:38;99272.88;;;19.70;55.54
23446;BME280;11895;48.738;9.320;2022-07-06T01:15:10;99278.13;;;19.73;55.81
23446;BME280;11895;48.738;9.320;2022-07-06T01:17:42;99272.53;;;19.51;56.51
23446;BME280;11895;48.738;9.320;2022-07-06T01:20:17;99280.34;;;18.95;59.27
23446;BME280;11895;48.738;9.320;2022-07-06T01:22:48;99274.16;;;18.93;59.52
23446;BME280;11895;48.738;9.320;2022-07-06T01:25:20;99269.00;;;19.01;59.20
23446;BME280;11895;48.738;9.320;2022-07-06T01:27:50;99275.28;;;19.14;58.43
23446;BME280;11895;48.738;9.320;2022-07-06T01:30:18;99279.94;;;19.01;59.64
23446;BME280;11895;48.738;9.320;2022-07-06T01:32:47;99284.09;;;18.56;61.33
23446;BME280;11895;48.738;9.320;2022-07-06T01:35:15;99280.59;;;18.92;57.83
23446;BME280;11895;48.738;9.320;2022-07-06T01:37:44;99279.72;;;18.66;61.24
23446;BME280;11895;48.738;9.320;2022-07-06T01:40:14;99275.59;;;18.86;60.48
23446;BME280;11895;48.738;9.320;2022-07-06T01:42:41;99276.88;;;18.93;58.79
23446;BME280;11895;48.738;9.320;2022-07-06T01:45:09;99281.81;;;18.88;60.48
23446;BME280;11895;48.738;9.320;2022-07-06T01:47:38;99273.63;;;18.75;62.07
23446;BME280;11895;48.738;9.320;2022-07-06T01:50:07;99276.81;;;18.69;61.38
23446;BME280;11895;48.738;9.320;2022-07-06T01:52:39;99276.47;;;18.73;60.39
23446;BME280;11895;48.738;9.320;2022-07-06T01:55:09;99274.28;;;18.40;62.30
23446;BME280;11895;48.738;9.320;2022-07-06T01:57:39;99276.91;;;18.42;62.30
23446;BME280;11895;48.738;9.320;2022-07-06T02:00:10;99280.59;;;18.41;62.84
23446;BME280;11895;48.738;9.320;2022-07-06T02:02:45;99283.84;;;18.08;64.08
23446;BME280;11895;48.738;9.320;2022-07-06T02:05:12;99289.97;;;18.11;64.09
23446;BME280;11895;48.738;9.320;2022-07-06T02:07:41;99285.84;;;18.18;64.49
23446;BME280;11895;48.738;9.320;2022-07-06T02:10:10;99286.72;;;18.32;63.66
23446;BME280;11895;48.738;9.320;2022-07-06T02:12:39;99287.38;;;18.35;62.67
23446;BME280;11895;48.738;9.320;2022-07-06T02:15:08;99295.22;;;18.14;63.77
23446;BME280;11895;48.738;9.320;2022-07-06T02:17:36;99289.00;;;18.00;64.44
23446;BME280;11895;48.738;9.320;2022-07-06T02:20:04;99295.09;;;18.03;63.70
23446;BME280;11895;48.738;9.320;2022-07-06T02:22:36;99297.81;;;18.03;63.51
23446;BME280;11895;48.738;9.320;2022-07-06T02:25:05;99295.19;;;18.02;63.91
23446;BME280;11895;48.738;9.320;2022-07-06T02:27:33;99291.59;;;17.61;66.13
23446;BME280;11895;48.738;9.320;2022-07-06T02:30:05;99300.22;;;17.68;66.12
23446;BME280;11895;48.738;9.320;2022-07-06T02:32:35;99291.44;;;17.77;66.05
23446;BME280;11895;48.738;9.320;2022-07-06T02:35:05;99298.75;;;17.77;65.10
23446;BME280;11895;48.738;9.320;2022-07-06T02:37:33;99293.34;;;17.62;65.95
23446;BME280;11895;48.738;9.320;2022-07-06T02:40:01;99304.31;;;17.75;64.86
23446;BME280;11895;48.738;9.320;2022-07-06T02:42:31;99309.38;;;17.94;65.13
23446;BME280;11895;48.738;9.320;2022-07-06T02:44:59;99307.47;;;17.82;65.15
23446;BME280;11895;48.738;9.320;2022-07-06T02:47:27;99311.00;;;17.69;65.47
23446;BME280;11895;48.738;9.320;2022-07-06T02:49:55;99317.84;;;17.62;66.20
23446;BME280;11895;48.738;9.320;2022-07-06T02:52:24;99316.25;;;17.72;65.37
23446;BME280;11895;48.738;9.320;2022-07-06T02:54:52;99322.28;;;17.51;66.25
23446;BME280;11895;48.738;9.320;2022-07-06T02:57:21;99320.44;;;17.78;65.93
23446;BME280;11895;48.738;9.320;2022-07-06T02:59:49;99322.28;;;17.78;65.05
23446;BME280;11895;48.738;9.320;2022-07-06T03:02:20;99316.00;;;17.90;63.07
23446;BME280;11895;48.738;9.320;2022-07-06T03:04:50;99319.13;;;17.84;64.23
23446;BME280;11895;48.738;9.320;2022-07-06T03:07:18;99316.53;;;17.82;63.78
23446;BME280;11895;48.738;9.320;2022-07-06T03:09:46;99314.47;;;17.86;63.53
23446;BME280;11895;48.738;9.320;2022-07-06T03:12:15;99329.31;;;17.67;65.19
23446;BME280;11895;48.738;9.320;2022-07-06T03:14:44;99320.66;;;17.75;64.62
23446;BME280;11895;48.738;9.320;2022-07-06T03:17:12;99322.59;;;17.46;66.20
23446;BME280;11895;48.738;9.320;2022-07-06T03:19:41;99329.72;;;17.61;65.59
23446;BME280;11895;48.738;9.320;2022-07-06T03:22:09;99327.00;;;17.61;66.42
23446;BME280;11895;48.738;9.320;2022-07-06T03:24:39;99330.03;;;17.84;64.86
23446;BME280;11895;48.738;9.320;2022-07-06T03:27:09;99332.91;;;17.95;63.64
23446;BME280;11895;48.738;9.320;2022-07-06T03:29:40;99327.41;;;18.09;63.73
23446;BME280;11895;48.738;9.320;2022-07-06T03:32:08;99338.03;;;17.72;64.79
23446;BME280;11895;48.738;9.320;2022-07-06T03:34:36;99330.94;;;17.02;68.20
23446;BME280;11895;48.738;9.320;2022-07-06T03:37:04;99336.47;;;17.14;68.01
23446;BME280;11895;48.738;9.320;2022-07-06T03:39:36;99341.53;;;16.92;69.01
23446;BME280;11895;48.738;9.320;2022-07-06T03:42:05;99337.25;;;17.16;67.67
23446;BME280;11895;48.738;9.320;2022-07-06T03:44:33;99338.88;;;17.19;67.51
23446;BME280;11895;48.738;9.320;2022-07-06T03:47:02;99344.66;;;16.72;69.48
23446;BME280;11895;48.738;9.320;2022-07-06T03:49:30;99341.53;;;16.63;70.40
23446;BME280;11895;48.738;9.320;2022-07-06T03:52:01;99342.34;;;16.94;68.73
23446;BME280;11895;48.738;9.320;2022-07-06T03:54:35;99344.91;;;16.67;70.22
23446;BME280;11895;48.738;9.320;2022-07-06T03:57:05;99342.53;;;16.77;70.17
23446;BME280;11895;48.738;9.320;2022-07-06T03:59:34;99343.97;;;16.96;69.16
23446;BME280;11895;48.738;9.320;2022-07-06T04:02:02;99347.88;;;16.92;70.11
23446;BME280;11895;48.738;9.320;2022-07-06T04:04:31;99345.03;;;17.08;69.43
23446;BME280;11895;48.738;9.320;2022-07-06T04:07:00;99348.16;;;17.02;69.65
23446;BME280;11895;48.738;9.320;2022-07-06T04:09:28;99350.88;;;17.16;67.90
23446;BME280;11895;48.738;9.320;2022-07-06T04:11:57;99351.59;;;17.33;67.37
23446;BME280;11895;48.738;9.320;2022-07-06T04:14:27;99362.50;;;17.33;67.26
23446;BME280;11895;48.738;9.320;2022-07-06T04:16:55;99366.31;;;17.16;67.89
23446;BME280;11895;48.738;9.320;2022-07-06T04:19:23;99362.91;;;17.27;67.59
23446;BME280;11895;48.738;9.320;2022-07-06T04:21:51;99364.28;;;17.05;68.71
23446;BME280;11895;48.738;9.320;2022-07-06T04:24:19;99360.94;;;17.29;68.23
23446;BME280;11895;48.738;9.320;2022-07-06T04:26:47;99356.31;;;17.16;68.49
23446;BME280;11895;48.738;9.320;2022-07-06T04:29:15;99361.69;;;17.31;67.38
23446;BME280;11895;48.738;9.320;2022-07-06T04:31:43;99371.88;;;17.56;66.00
23446;BME280;11895;48.738;9.320;2022-07-06T04:34:11;99367.06;;;17.73;66.35
23446;BME280;11895;48.738;9.320;2022-07-06T04:36:46;99372.59;;;17.72;66.74
23446;BME280;11895;48.738;9.320;2022-07-06T04:39:15;99373.88;;;17.81;62.42
23446;BME280;11895;48.738;9.320;2022-07-06T04:41:43;99373.44;;;17.87;65.16
23446;BME280;11895;48.738;9.320;2022-07-06T04:44:12;99368.84;;;18.14;64.43
23446;BME280;11895;48.738;9.320;2022-07-06T04:46:40;99373.22;;;18.30;63.66
23446;BME280;11895;48.738;9.320;2022-07-06T04:49:07;99373.50;;;18.12;64.17
23446;BME280;11895;48.738;9.320;2022-07-06T04:51:35;99374.44;;;17.98;65.18
23446;BME280;11895;48.738;9.320;2022-07-06T04:54:04;99389.06;;;17.70;66.44
23446;BME280;11895;48.738;9.320;2022-07-06T04:56:34;99386.88;;;17.90;66.08
23446;BME280;11895;48.738;9.320;2022-07-06T04:59:02;99385.91;;;17.91;65.57
23446;BME280;11895;48.738;9.320;2022-07-06T05:01:36;99390.31;;;18.06;65.25
23446;BME280;11895;48.738;9.320;2022-07-06T05:04:04;99390.34;;;18.19;64.16
23446;BME280;11895;48.738;9.320;2022-07-06T05:06:32;99384.16;;;17.90;64.58
23446;BME280;11895;48.738;9.320;2022-07-06T05:09:00;99388.50;;;17.92;64.99
23446;BME280;11895;48.738;9.320;2022-07-06T05:11:31;99384.91;;;18.32;64.14
23446;BME280;11895;48.738;9.320;2022-07-06T05:14:02;99383.81;;;18.34;64.06
23446;BME280;11895;48.738;9.320;2022-07-06T05:16:31;99382.06;;;18.20;64.10
23446;BME280;11895;48.738;9.320;2022-07-06T05:18:59;99390.19;;;18.60;62.42
23446;BME280;11895;48.738;9.320;2022-07-06T05:21:28;99392.38;;;18.68;61.86
23446;BME280;11895;48.738;9.320;2022-07-06T05:23:56;99394.25;;;18.80;61.32
23446;BME280;11895;48.738;9.320;2022-07-06T05:26:24;99398.84;;;19.05;57.28
23446;BME280;11895;48.738;9.320;2022-07-06T05:28:52;99397.88;;;19.06;56.92
23446;BME280;11895;48.738;9.320;2022-07-06T05:31:21;99395.22;;;19.30;50.55
23446;BME280;11895;48.738;9.320;2022-07-06T05:33:49;99385.28;;;19.53;54.62
23446;BME280;11895;48.738;9.320;2022-07-06T05:36:17;99393.72;;;19.63;55.27
23446;BME280;11895;48.738;9.320;2022-07-06T05:38:46;99391.16;;;19.72;50.42
23446;BME280;11895;48.738;9.320;2022-07-06T05:41:14;99394.72;;;19.62;52.92
23446;BME280;11895;48.738;9.320;2022-07-06T05:43:41;99393.50;;;19.90;53.98
23446;BME280;11895;48.738;9.320;2022-07-06T05:46:11;99397.59;;;20.08;52.18
23446;BME280;11895;48.738;9.320;2022-07-06T05:48:41;99396.78;;;20.30;52.05
23446;BME280;11895;48.738;9.320;2022-07-06T05:51:28;99392.78;;;20.47;52.44
23446;BME280;11895;48.738;9.320;2022-07-06T05:53:57;99396.56;;;20.68;51.69
23446;BME280;11895;48.738;9.320;2022-07-06T05:56:25;99394.38;;;20.85;50.96
23446;BME280;11895;48.738;9.320;2022-07-06T05:58:53;99397.84;;;20.98;50.21
23446;BME280;11895;48.738;9.320;2022-07-06T06:01:21;99397.38;;;21.04;49.41
23446;BME280;11895;48.738;9.320;2022-07-06T06:03:59;99389.66;;;21.09;51.30
23446;BME280;11895;48.738;9.320;2022-07-06T06:06:28;99393.13;;;21.11;49.00
23446;BME280;11895;48.738;9.320;2022-07-06T06:08:58;99393.41;;;21.19;49.14
23446;BME280;11895;48.738;9.320;2022-07-06T06:11:26;99397.63;;;21.23;48.60
23446;BME280;11895;48.738;9.320;2022-07-06T06:13:56;99401.91;;;21.39;48.91
23446;BME280;11895;48.738;9.320;2022-07-06T06:16:24;99402.38;;;21.44;48.85
23446;BME280;11895;48.738;9.320;2022-07-06T06:18:52;99403.72;;;21.61;47.12
23446;BME280;11895;48.738;9.320;2022-07-06T06:21:19;99398.63;;;21.67;47.88
23446;BME280;11895;48.738;9.320;2022-07-06T06:23:47;99404.31;;;21.75;47.97
23446;BME280;11895;48.738;9.320;2022-07-06T06:26:14;99413.09;;;21.13;48.84
23446;BME280;11895;48.738;9.320;2022-07-06T06:28:43;99415.06;;;21.56;48.40
23446;BME280;11895;48.738;9.320;2022-07-06T06:31:11;99413.72;;;21.62;48.19
23446;BME280;11895;48.738;9.320;2022-07-06T06:33:39;99406.84;;;21.67;47.08
23446;BME280;11895;48.738;9.320;2022-07-06T06:36:09;99417.06;;;21.54;48.06
23446;BME280;11895;48.738;9.320;2022-07-06T06:38:37;99423.31;;;21.67;48.35
23446;BME280;11895;48.738;9.320;2022-07-06T06:41:05;99425.25;;;21.88;48.27
23446;BME280;11895;48.738;9.320;2022-07-06T06:43:33;99425.44;;;22.18;47.69
23446;BME280;11895;48.738;9.320;2022-07-06T06:46:07;99426.84;;;22.45;46.45
23446;BME280;11895;48.738;9.320;2022-07-06T06:48:35;99425.84;;;22.46;46.21
23446;BME280;11895;48.738;9.320;2022-07-06T06:51:03;99420.75;;;22.62;46.13
23446;BME280;11895;48.738;9.320;2022-07-06T06:53:31;99422.91;;;22.79;46.15
23446;BME280;11895;48.738;9.320;2022-07-06T06:56:07;99418.75;;;22.85;45.98
23446;BME280;11895;48.738;9.320;2022-07-06T06:58:36;99420.31;;;22.99;45.99
23446;BME280;11895;48.738;9.320;2022-07-06T07:01:24;99413.53;;;23.03;45.38
23446;BME280;11895;48.738;9.320;2022-07-06T07:03:53;99410.31;;;23.19;44.81
23446;BME280;11895;48.738;9.320;2022-07-06T07:06:22;99410.53;;;23.37;45.62
23446;BME280;11895;48.738;9.320;2022-07-06T07:08:51;99403.03;;;23.08;44.49
23446;BME280;11895;48.738;9.320;2022-07-06T07:11:19;99411.34;;;23.27;44.78
23446;BME280;11895;48.738;9.320;2022-07-06T07:13:47;99405.19;;;23.45;44.45
23446;BME280;11895;48.738;9.320;2022-07-06T07:16:15;99411.63;;;23.55;44.16
23446;BME280;11895;48.738;9.320;2022-07-06T07:18:46;99405.72;;;23.59;44.15
23446;BME280;11895;48.738;9.320;2022-07-06T07:21:14;99407.41;;;23.51;44.44
23446;BME280;11895;48.738;9.320;2022-07-06T07:23:41;99397.63;;;23.68;43.74
23446;BME280;11895;48.738;9.320;2022-07-06T07:26:09;99404.81;;;23.59;44.26
23446;BME280;11895;48.738;9.320;2022-07-06T07:28:40;99396.13;;;23.54;44.67
23446;BME280;11895;48.738;9.320;2022-07-06T07:31:11;99400.56;;;23.36;44.38
23446;BME280;11895;48.738;9.320;2022-07-06T07:33:42;99396.50;;;23.40;45.16
23446;BME280;11895;48.738;9.320;2022-07-06T07:36:10;99392.94;;;23.58;44.60
23446;BME280;11895;48.738;9.320;2022-07-06T07:38:40;99393.91;;;23.78;44.02
23446;BME280;11895;48.738;9.320;2022-07-06T07:41:08;99403.53;;;24.03;43.73
23446;BME280;11895;48.738;9.320;2022-07-06T07:43:39;99392.47;;;23.74;43.60
23446;BME280;11895;48.738;9.320;2022-07-06T07:46:07;99391.63;;;24.03;43.47
23446;BME280;11895;48.738;9.320;2022-07-06T07:48:35;99394.28;;;24.24;43.68
23446;BME280;11895;48.738;9.320;2022-07-06T07:51:03;99394.91;;;24.37;43.03
23446;BME280;11895;48.738;9.320;2022-07-06T07:53:30;99392.22;;;24.35;42.74
23446;BME280;11895;48.738;9.320;2022-07-06T07:55:58;99393.44;;;24.43;43.09
23446;BME280;11895;48.738;9.320;2022-07-06T07:58:25;99395.44;;;24.41;42.20
23446;BME280;11895;48.738;9.320;2022-07-06T08:00:54;99392.56;;;24.52;42.97
23446;BME280;11895;48.738;9.320;2022-07-06T08:03:22;99395.00;;;24.55;42.83
23446;BME280;11895;48.738;9.320;2022-07-06T08:05:51;99395.16;;;24.63;41.98
23446;BME280;11895;48.738;9.320;2022-07-06T08:08:21;99400.38;;;24.66;42.60
23446;BME280;11895;48.738;9.320;2022-07-06T08:10:49;99395.13;;;24.34;42.49
23446;BME280;11895;48.738;9.320;2022-07-06T08:13:41;99394.38;;;24.03;42.95
23446;BME280;11895;48.738;9.320;2022-07-06T08:16:09;99398.06;;;24.42;42.98
23446;BME280;11895;48.738;9.320;2022-07-06T08:18:37;99400.66;;;24.63;42.77
23446;BME280;11895;48.738;9.320;2022-07-06T08:21:05;99399.00;;;24.90;42.02
23446;BME280;11895;48.738;9.320;2022-07-06T08:23:55;99398.88;;;25.01;41.64
23446;BME280;11895;48.738;9.320;2022-07-06T08:26:24;99394.78;;;25.05;41.30
23446;BME280;11895;48.738;9.320;2022-07-06T08:28:51;99400.53;;;25.31;41.70
23446;BME280;11895;48.738;9.320;2022-07-06T08:34:25;99394.38;;;24.22;42.79
23446;BME280;11895;48.738;9.320;2022-07-06T08:37:01;99394.53;;;24.30;42.68
23446;BME280;11895;48.738;9.320;2022-07-06T08:39:29;99399.50;;;24.56;43.26
23446;BME280;11895;48.738;9.320;2022-07-06T08:41:57;99395.53;;;24.87;40.71
23446;BME280;11895;48.738;9.320;2022-07-06T08:44:26;99396.34;;;25.27;41.47
23446;BME280;11895;48.738;9.320;2022-07-06T08:46:53;99396.41;;;25.45;40.50
23446;BME280;11895;48.738;9.320;2022-07-06T08:49:22;99392.16;;;25.13;40.73
23446;BME280;11895;48.738;9.320;2022-07-06T08:51:50;99399.59;;;25.50;40.40
23446;BME280;11895;48.738;9.320;2022-07-06T08:54:24;99406.59;;;25.44;40.27
23446;BME280;11895;48.738;9.320;2022-07-06T08:56:54;99398.66;;;25.59;40.85
23446;BME280;11895;48.738;9.320;2022-07-06T08:59:23;99399.88;;;25.00;41.24
23446;BME280;11895;48.738;9.320;2022-07-06T09:01:51;99396.00;;;24.34;42.80
23446;BME280;11895;48.738;9.320;2022-07-06T09:04:19;99393.41;;;24.62;42.54
23446;BME280;11895;48.738;9.320;2022-07-06T09:06:51;99396.22;;;25.19;41.82
23446;BME280;11895;48.738;9.320;2022-07-06T09:09:20;99406.53;;;25.54;40.94
23446;BME280;11895;48.738;9.320;2022-07-06T09:11:51;99403.03;;;25.52;40.42
23446;BME280;11895;48.738;9.320;2022-07-06T09:14:19;99397.97;;;25.84;39.60
23446;BME280;11895;48.738;9.320;2022-07-06T09:16:51;99394.91;;;25.87;38.98
23446;BME280;11895;48.738;9.320;2022-07-06T09:19:22;99401.03;;;25.54;40.07
23446;BME280;11895;48.738;9.320;2022-07-06T09:21:49;99393.97;;;25.69;39.52
23446;BME280;11895;48.738;9.320;2022-07-06T09:24:17;99398.28;;;25.81;39.46
23446;BME280;11895;48.738;9.320;2022-07-06T09:26:46;99408.59;;;26.07;38.86
23446;BME280;11895;48.738;9.320;2022-07-06T09:29:15;99415.16;;;26.42;38.98
23446;BME280;11895;48.738;9.320;2022-07-06T09:31:56;99414.28;;;26.59;37.99
23446;BME280;11895;48.738;9.320;2022-07-06T09:34:43;99412.38;;;26.77;38.21
23446;BME280;11895;48.738;9.320;2022-07-06T09:37:12;99409.81;;;26.58;37.16
23446;BME280;11895;48.738;9.320;2022-07-06T09:39:41;99421.81;;;26.49;38.30
23446;BME280;11895;48.738;9.320;2022-07-06T09:42:10;99421.41;;;26.79;37.68
23446;BME280;11895;48.738;9.320;2022-07-06T09:44:38;99425.75;;;26.64;37.36
23446;BME280;11895;48.738;9.320;2022-07-06T09:47:08;99416.94;;;27.04;36.38
23446;BME280;11895;48.738;9.320;2022-07-06T09:49:37;99428.41;;;27.09;36.87
23446;BME280;11895;48.738;9.320;2022-07-06T09:52:35;99425.91;;;27.24;37.07
23446;BME280;11895;48.738;9.320;2022-07-06T09:55:08;99425.34;;;27.21;36.95
23446;BME280;11895;48.738;9.320;2022-07-06T09:57:53;99427.06;;;26.96;36.71
23446;BME280;11895;48.738;9.320;2022-07-06T10:00:23;99435.56;;;27.20;36.55
23446;BME280;11895;48.738;9.320;2022-07-06T10:02:51;99423.31;;;27.23;35.37
23446;BME280;11895;48.738;9.320;2022-07-06T10:05:22;99431.44;;;26.80;36.61
23446;BME280;11895;48.738;9.320;2022-07-06T10:08:00;99422.28;;;26.62;37.31
23446;BME280;11895;48.738;9.320;2022-07-06T10:10:29;99434.09;;;27.08;37.45
23446;BME280;11895;48.738;9.320;2022-07-06T10:12:57;99426.66;;;26.90;36.84
23446;BME280;11895;48.738;9.320;2022-07-06T10:15:26;99423.44;;;27.47;36.32
23446;BME280;11895;48.738;9.320;2022-07-06T10:17:55;99421.47;;;28.00;36.07
23446;BME280;11895;48.738;9.320;2022-07-06T10:20:22;99422.34;;;28.00;35.38
23446;BME280;11895;48.738;9.320;2022-07-06T10:22:51;99430.59;;;27.32;36.18
23446;BME280;11895;48.738;9.320;2022-07-06T10:25:21;99429.81;;;27.13;35.65
23446;BME280;11895;48.738;9.320;2022-07-06T10:27:51;99432.63;;;27.56;35.89
23446;BME280;11895;48.738;9.320;2022-07-06T10:30:20;99426.25;;;27.89;35.20
23446;BME280;11895;48.738;9.320;2022-07-06T10:32:48;99421.50;;;27.39;36.39
23446;BME280;11895;48.738;9.320;2022-07-06T10:35:19;99423.78;;;27.78;35.62
23446;BME280;11895;48.738;9.320;2022-07-06T10:38:04;99428.75;;;28.09;35.40
23446;BME280;11895;48.738;9.320;2022-07-06T10:40:36;99433.72;;;28.39;34.66
23446;BME280;11895;48.738;9.320;2022-07-06T10:43:38;99435.00;;;28.11;34.71
23446;BME280;11895;48.738;9.320;2022-07-06T10:46:14;99427.69;;;27.67;35.14
23446;BME280;11895;48.738;9.320;2022-07-06T10:48:43;99428.59;;;27.16;36.26
23446;BME280;11895;48.738;9.320;2022-07-06T10:51:12;99428.56;;;27.68;35.91
23446;BME280;11895;48.738;9.320;2022-07-06T10:53:40;99421.97;;;27.95;35.62
23446;BME280;11895;48.738;9.320;2022-07-06T10:56:08;99422.34;;;28.00;34.93
23446;BME280;11895;48.738;9.320;2022-07-06T10:58:47;99434.78;;;27.36;35.19
23446;BME280;11895;48.738;9.320;2022-07-06T11:01:22;99424.25;;;28.00;34.86
23446;BME280;11895;48.738;9.320;2022-07-06T11:07:11;99419.53;;;28.83;33.76
23446;BME280;11895;48.738;9.320;2022-07-06T11:09:39;99417.81;;;28.74;33.96
23446;BME280;11895;48.738;9.320;2022-07-06T11:12:15;99412.84;;;28.11;34.50
23446;BME280;11895;48.738;9.320;2022-07-06T11:14:46;99413.66;;;28.54;34.27
23446;BME280;11895;48.738;9.320;2022-07-06T11:17:14;99412.63;;;29.12;33.51
23446;BME280;11895;48.738;9.320;2022-07-06T11:21:35;99414.16;;;29.86;32.02
23446;BME280;11895;48.738;9.320;2022-07-06T11:24:26;99408.84;;;30.08;31.34
23446;BME280;11895;48.738;9.320;2022-07-06T11:26:57;99424.94;;;29.73;31.25
23446;BME280;11895;48.738;9.320;2022-07-06T11:29:30;99404.53;;;29.66;32.11
23446;BME280;11895;48.738;9.320;2022-07-06T11:32:02;99406.53;;;29.88;31.82
23446;BME280;11895;48.738;9.320;2022-07-06T11:36:47;99408.56;;;30.57;30.35
23446;BME280;11895;48.738;9.320;2022-07-06T11:39:16;99391.47;;;31.06;30.25
23446;BME280;11895;48.738;9.320;2022-07-06T11:41:44;99396.63;;;30.48;30.95
23446;BME280;11895;48.738;9.320;2022-07-06T11:44:18;99400.53;;;31.52;29.50
23446;BME280;11895;48.738;9.320;2022-07-06T11:46:46;99398.34;;;30.95;29.68
23446;BME280;11895;48.738;9.320;2022-07-06T11:49:17;99395.56;;;30.95;29.85
23446;BME280;11895;48.738;9.320;2022-07-06T11:51:47;99408.47;;;31.11;30.30
23446;BME280;11895;48.738;9.320;2022-07-06T11:54:21;99389.84;;;31.26;30.06
23446;BME280;11895;48.738;9.320;2022-07-06T11:56:58;99386.75;;;31.59;29.41
23446;BME280;11895;48.738;9.320;2022-07-06T11:59:34;99385.16;;;32.01;28.87
23446;BME280;11895;48.738;9.320;2022-07-06T12:02:10;99394.22;;;33.31;26.88
23446;BME280;11895;48.738;9.320;2022-07-06T12:04:46;99382.22;;;34.07;26.45
23446;BME280;11895;48.738;9.320;2022-07-06T12:07:16;99387.81;;;34.00;25.91
23446;BME280;11895;48.738;9.320;2022-07-06T12:09:46;99379.88;;;33.69;27.12
23446;BME280;11895;48.738;9.320;2022-07-06T12:12:17;99380.41;;;33.92;26.90
23446;BME280;11895;48.738;9.320;2022-07-06T12:14:45;99384.47;;;34.31;25.63
23446;BME280;11895;48.738;9.320;2022-07-06T12:17:15;99380.41;;;33.92;26.64
23446;BME280;11895;48.738;9.320;2022-07-06T12:19:44;99379.22;;;35.09;25.37
23446;BME280;11895;48.738;9.320;2022-07-06T12:22:12;99374.84;;;36.24;24.10
23446;BME280;11895;48.738;9.320;2022-07-06T12:24:44;99379.78;;;35.71;24.40
23446;BME280;11895;48.738;9.320;2022-07-06T12:27:18;99376.75;;;37.25;23.08
23446;BME280;11895;48.738;9.320;2022-07-06T12:29:48;99385.53;;;37.11;23.17
23446;BME280;11895;48.738;9.320;2022-07-06T12:32:22;99376.00;;;35.45;24.76
23446;BME280;11895;48.738;9.320;2022-07-06T12:35:11;99385.09;;;36.82;23.42
23446;BME280;11895;48.738;9.320;2022-07-06T12:37:40;99376.22;;;37.35;22.86
23446;BME280;11895;48.738;9.320;2022-07-06T12:40:26;99374.22;;;38.34;21.77
23446;BME280;11895;48.738;9.320;2022-07-06T12:42:55;99387.84;;;39.21;20.68
23446;BME280;11895;48.738;9.320;2022-07-06T12:45:32;99386.53;;;39.70;20.21
23446;BME280;11895;48.738;9.320;2022-07-06T12:48:01;99379.91;;;39.65;20.13
23446;BME280;11895;48.738;9.320;2022-07-06T12:50:38;99381.59;;;38.17;21.53
23446;BME280;11895;48.738;9.320;2022-07-06T12:53:25;99378.50;;;35.73;23.46
23446;BME280;11895;48.738;9.320;2022-07-06T12:56:12;99374.25;;;34.58;25.67
23446;BME280;11895;48.738;9.320;2022-07-06T12:58:57;99373.19;;;34.92;25.03
23446;BME280;11895;48.738;9.320;2022-07-06T13:01:27;99369.50;;;36.54;23.33
23446;BME280;11895;48.738;9.320;2022-07-06T13:03:57;99373.63;;;36.90;23.26
23446;BME280;11895;48.738;9.320;2022-07-06T13:06:30;99382.31;;;37.07;22.83
23446;BME280;11895;48.738;9.320;2022-07-06T13:09:00;99381.56;;;37.18;22.34
23446;BME280;11895;48.738;9.320;2022-07-06T13:11:29;99382.16;;;37.89;21.97
23446;BME280;11895;48.738;9.320;2022-07-06T13:13:58;99389.63;;;38.92;21.12
23446;BME280;11895;48.738;9.320;2022-07-06T13:16:25;99395.72;;;39.77;20.35
23446;BME280;11895;48.738;9.320;2022-07-06T13:19:01;99392.28;;;40.68;19.49
23446;BME280;11895;48.738;9.320;2022-07-06T13:21:30;99385.22;;;41.66;19.27
23446;BME280;11895;48.738;9.320;2022-07-06T13:23:57;99394.22;;;41.80;18.41
23446;BME280;11895;48.738;9.320;2022-07-06T13:26:26;99384.81;;;41.24;19.10
23446;BME280;11895;48.738;9.320;2022-07-06T13:28:55;99392.94;;;39.66;19.44